createdAt,value
2019-02-09T00:01:02.326Z,95143.91
2019-02-09T00:03:50.472Z,95147.73
2019-02-09T00:06:39.262Z,95152.89
2019-02-09T00:09:27.982Z,95145.57
2019-02-09T00:12:17.158Z,95151.56
2019-02-09T00:15:27.223Z,95142.11
2019-02-09T00:18:17.224Z,95142.09
2019-02-09T00:21:06.868Z,95139.98
2019-02-09T00:23:55.938Z,95130.94
2019-02-09T00:26:44.790Z,95135.69
2019-02-09T00:29:33.263Z,95125.84
2019-02-09T00:32:23.524Z,95116.77
2019-02-09T00:35:12.513Z,95125.84
2019-02-09T00:38:01.660Z,95112.58
2019-02-09T00:40:50.306Z,95109.56
2019-02-09T00:43:38.822Z,95092.36
2019-02-09T00:46:27.490Z,95091.92
2019-02-09T00:49:16.780Z,95100.07
2019-02-09T00:52:05.328Z,95097.52
2019-02-09T00:54:54.478Z,95100.91
2019-02-09T00:57:43.148Z,95097.05
2019-02-09T01:00:32.229Z,95109.95
2019-02-09T01:03:20.668Z,95107.83
2019-02-09T01:06:09.582Z,95105.66
2019-02-09T01:08:58.362Z,95118.12
2019-02-09T01:11:46.480Z,95115.98
2019-02-09T01:14:36.406Z,95128.01
2019-02-09T01:17:25.258Z,95123.27
2019-02-09T01:20:17.824Z,95121.95
2019-02-09T01:23:06.292Z,95132.23
2019-02-09T01:25:55.099Z,95125.84
2019-02-09T01:28:43.714Z,95128.03
2019-02-09T01:31:31.886Z,95126.27
2019-02-09T01:34:20.701Z,95118.97
2019-02-09T01:37:09.981Z,95116.38
2019-02-09T01:39:59.208Z,95110.41
2019-02-09T01:42:48.130Z,95106.55
2019-02-09T01:45:36.862Z,95102.30
2019-02-09T01:48:25.804Z,95097.16
2019-02-09T01:51:14.566Z,95098.47
2019-02-09T01:54:04.102Z,95098.89
2019-02-09T01:56:52.935Z,95098.49
2019-02-09T01:59:41.823Z,95093.35
2019-02-09T02:02:30.932Z,95089.06
2019-02-09T02:05:21.374Z,95086.91
2019-02-09T02:08:11.375Z,95088.22
2019-02-09T02:11:00.498Z,95078.34
2019-02-09T02:13:49.152Z,95087.38
2019-02-09T02:16:38.010Z,95082.22
2019-02-09T02:19:26.880Z,95068.13
2019-02-09T02:22:15.355Z,95081.39
2019-02-09T02:25:05.716Z,95070.66
2019-02-09T02:27:54.708Z,95092.52
2019-02-09T02:30:43.916Z,95092.97
2019-02-09T02:33:32.559Z,95089.09
2019-02-09T02:36:21.714Z,95083.94
2019-02-09T02:39:11.160Z,95078.39
2019-02-09T02:42:00.143Z,95077.95
2019-02-09T02:44:48.500Z,95078.38
2019-02-09T02:47:37.571Z,95065.98
2019-02-09T02:50:26.447Z,95067.25
2019-02-09T02:53:16.557Z,95068.53
2019-02-09T02:56:05.641Z,95073.68
2019-02-09T02:58:54.494Z,95072.83
2019-02-09T03:01:43.473Z,95070.23
2019-02-09T03:04:32.109Z,95066.33
2019-02-09T03:07:20.473Z,95064.59
2019-02-09T03:10:09.808Z,95067.58
2019-02-09T03:12:58.877Z,95059.45
2019-02-09T03:15:47.506Z,95069.72
2019-02-09T03:18:36.319Z,95075.75
2019-02-09T03:21:25.526Z,95073.59
2019-02-09T03:24:13.930Z,95073.63
2019-02-09T03:27:03.384Z,95070.61
2019-02-09T03:29:52.289Z,95058.17
2019-02-09T03:32:41.201Z,95063.28
2019-02-09T03:35:29.812Z,95051.27
2019-02-09T03:38:18.520Z,95050.38
2019-02-09T03:41:06.924Z,95046.48
2019-02-09T03:43:55.145Z,95037.45
2019-02-09T03:46:44.328Z,95049.43
2019-02-09T03:49:32.901Z,95053.26
2019-02-09T03:52:22.238Z,95058.80
2019-02-09T03:55:10.796Z,95053.61
2019-02-09T03:57:59.114Z,95050.59
2019-02-09T04:00:55.297Z,95045.41
2019-02-09T04:03:37.936Z,95040.66
2019-02-09T04:06:26.925Z,95032.95
2019-02-09T04:09:16.260Z,95031.19
2019-02-09T04:12:05.519Z,95031.17
2019-02-09T04:14:53.882Z,95012.70
2019-02-09T04:17:42.353Z,95004.53
2019-02-09T04:20:31.171Z,94993.81
2019-02-09T04:23:19.982Z,94995.08
2019-02-09T04:26:08.545Z,94994.66
2019-02-09T04:28:57.169Z,94983.02
2019-02-09T04:31:45.311Z,94980.00
2019-02-09T04:34:33.905Z,94977.81
2019-02-09T04:37:22.725Z,94967.91
2019-02-09T04:40:14.020Z,94972.62
2019-02-09T04:43:03.984Z,94962.73
2019-02-09T04:45:52.692Z,94965.70
2019-02-09T04:48:40.986Z,94976.40
2019-02-09T04:51:29.927Z,94970.80
2019-02-09T04:54:18.872Z,94963.00
2019-02-09T04:57:07.334Z,94969.03
2019-02-09T04:59:56.266Z,94964.69
2019-02-09T05:02:45.067Z,94958.62
2019-02-09T05:05:33.160Z,94958.62
2019-02-09T05:08:21.899Z,94960.76
2019-02-09T05:11:10.167Z,94968.52
2019-02-09T05:13:59.221Z,94981.83
2019-02-09T05:16:48.403Z,94991.72
2019-02-09T05:19:36.873Z,95000.31
2019-02-09T05:22:25.845Z,95005.47
2019-02-09T05:25:15.587Z,95009.70
2019-02-09T05:28:04.307Z,95041.98
2019-02-09T05:30:52.772Z,95040.20
2019-02-09T05:33:41.482Z,95033.25
2019-02-09T05:36:30.035Z,95060.73
2019-02-09T05:39:18.527Z,95043.98
2019-02-09T05:42:07.370Z,95040.93
2019-02-09T05:44:55.655Z,95047.80
2019-02-09T05:47:44.654Z,95076.16
2019-02-09T05:50:32.945Z,95077.45
2019-02-09T05:53:21.514Z,95088.59
2019-02-09T05:56:10.245Z,95095.83
2019-02-09T05:58:59.300Z,95105.30
2019-02-09T06:01:47.970Z,95110.88
2019-02-09T06:04:36.451Z,95109.17
2019-02-09T06:07:25.168Z,95113.48
2019-02-09T06:10:16.699Z,95116.43
2019-02-09T06:13:06.177Z,95124.94
2019-02-09T06:15:54.858Z,95126.95
2019-02-09T06:18:43.737Z,95121.48
2019-02-09T06:21:32.779Z,95125.57
2019-02-09T06:24:21.231Z,95131.25
2019-02-09T06:27:09.759Z,95135.38
2019-02-09T06:29:58.325Z,95149.52
2019-02-09T06:32:47.003Z,95150.23
2019-02-09T06:35:35.827Z,95153.99
2019-02-09T06:38:24.854Z,95166.83
2019-02-09T06:41:13.786Z,95182.59
2019-02-09T06:44:02.662Z,95194.77
2019-02-09T06:46:51.576Z,95197.72
2019-02-09T06:49:40.873Z,95207.11
2019-02-09T06:52:31.389Z,95210.91
2019-02-09T06:55:20.590Z,95191.92
2019-02-09T06:58:09.391Z,95211.15
2019-02-09T07:00:57.991Z,95246.48
2019-02-09T07:03:46.843Z,95207.42
2019-02-09T07:06:35.292Z,95199.52
2019-02-09T07:09:23.858Z,95216.65
2019-02-09T07:12:12.827Z,95216.00
2019-02-09T07:15:01.850Z,95222.33
2019-02-09T07:17:50.151Z,95237.86
2019-02-09T07:20:39.294Z,95226.31
2019-02-09T07:23:30.780Z,95236.20
2019-02-09T07:26:19.706Z,95255.66
2019-02-09T07:29:08.663Z,95257.78
2019-02-09T07:31:57.879Z,95259.09
2019-02-09T07:34:46.365Z,95251.27
2019-02-09T07:37:35.160Z,95262.87
2019-02-09T07:40:24.246Z,95279.61
2019-02-09T07:43:12.715Z,95270.50
2019-02-09T07:46:01.400Z,95264.90
2019-02-09T07:48:50.635Z,95264.06
2019-02-09T07:51:39.288Z,95283.02
2019-02-09T07:54:28.056Z,95277.38
2019-02-09T07:57:16.245Z,95276.50
2019-02-09T08:00:08.853Z,95265.73
2019-02-09T08:02:57.702Z,95271.42
2019-02-09T08:05:46.044Z,95286.59
2019-02-09T08:08:34.836Z,95280.58
2019-02-09T08:11:24.071Z,95281.92
2019-02-09T08:14:12.955Z,95291.27
2019-02-09T08:17:01.978Z,95293.30
2019-02-09T08:19:50.551Z,95306.09
2019-02-09T08:22:39.655Z,95292.53
2019-02-09T08:25:30.339Z,95304.81
2019-02-09T08:28:19.521Z,95283.45
2019-02-09T08:31:08.640Z,95286.41
2019-02-09T08:33:57.240Z,95295.78
2019-02-09T08:36:45.837Z,95279.09
2019-02-09T08:39:34.445Z,95269.55
2019-02-09T08:42:24.250Z,95279.98
2019-02-09T08:45:17.265Z,95282.63
2019-02-09T08:48:06.153Z,95285.27
2019-02-09T08:51:00.201Z,95281.44
2019-02-09T08:53:49.268Z,95286.15
2019-02-09T08:56:38.170Z,95283.14
2019-02-09T08:59:26.331Z,95275.84
2019-02-09T09:02:20.458Z,95277.91
2019-02-09T09:05:09.702Z,95286.20
2019-02-09T09:07:56.761Z,95295.27
2019-02-09T09:10:45.650Z,95293.98
2019-02-09T09:13:34.828Z,95285.73
2019-02-09T09:16:23.094Z,95288.27
2019-02-09T09:19:12.176Z,95281.59
2019-02-09T09:22:01.372Z,95281.94
2019-02-09T09:24:50.688Z,95278.36
2019-02-09T09:27:39.444Z,95281.25
2019-02-09T09:30:28.442Z,95275.06
2019-02-09T09:33:17.144Z,95285.33
2019-02-09T09:36:05.910Z,95286.55
2019-02-09T09:38:54.905Z,95291.31
2019-02-09T09:41:43.909Z,95285.67
2019-02-09T09:44:32.668Z,95294.75
2019-02-09T09:47:21.646Z,95291.31
2019-02-09T09:50:12.885Z,95292.20
2019-02-09T09:53:01.333Z,95296.39
2019-02-09T09:55:50.137Z,95296.52
2019-02-09T09:58:39.128Z,95295.09
2019-02-09T10:01:27.472Z,95296.73
2019-02-09T10:04:16.600Z,95301.75
2019-02-09T10:07:04.789Z,95305.93
2019-02-09T10:09:54.001Z,95296.80
2019-02-09T10:12:43.545Z,95306.53
2019-02-09T10:15:31.754Z,95303.67
2019-02-09T10:18:19.900Z,95318.62
2019-02-09T10:21:08.556Z,95321.02
2019-02-09T10:23:57.393Z,95318.21
2019-02-09T10:26:46.396Z,95318.89
2019-02-09T10:29:34.827Z,95318.83
2019-02-09T10:32:23.953Z,95322.45
2019-02-09T10:35:12.784Z,95319.70
2019-02-09T10:38:01.316Z,95312.19
2019-02-09T10:40:50.266Z,95306.51
2019-02-09T10:43:40.883Z,95294.66
2019-02-09T10:46:29.747Z,95304.00
2019-02-09T10:49:18.650Z,95302.65
2019-02-09T10:52:07.593Z,95293.39
2019-02-09T10:54:56.015Z,95304.05
2019-02-09T10:57:45.093Z,95313.47
2019-02-09T11:00:43.395Z,95315.84
2019-02-09T11:03:32.367Z,95309.11
2019-02-09T11:06:21.214Z,95297.59
2019-02-09T11:09:17.361Z,95320.23
2019-02-09T11:12:06.799Z,95303.27
2019-02-09T11:14:55.548Z,95304.33
2019-02-09T11:17:45.033Z,95307.07
2019-02-09T11:20:33.610Z,95319.83
2019-02-09T11:23:27.420Z,95317.22
2019-02-09T11:26:16.603Z,95325.56
2019-02-09T11:29:05.706Z,95317.44
2019-02-09T11:31:55.461Z,95327.62
2019-02-09T11:34:44.689Z,95331.55
2019-02-09T11:37:33.367Z,95330.74
2019-02-09T11:40:22.243Z,95323.88
2019-02-09T11:43:11.095Z,95321.45
2019-02-09T11:46:00.198Z,95320.73
2019-02-09T11:48:50.001Z,95320.14
2019-02-09T11:51:38.486Z,95324.65
2019-02-09T11:54:27.184Z,95317.84
2019-02-09T11:57:15.862Z,95321.36
2019-02-09T12:00:05.547Z,95317.84
2019-02-09T12:03:02.137Z,95312.71
2019-02-09T12:05:45.329Z,95321.09
2019-02-09T12:08:35.706Z,95324.65
2019-02-09T12:11:24.463Z,95306.74
2019-02-09T12:14:13.242Z,95319.53
2019-02-09T12:17:01.927Z,95295.80
2019-02-09T12:19:51.010Z,95306.94
2019-02-09T12:22:40.397Z,95304.48
2019-02-09T12:25:31.649Z,95309.70
2019-02-09T12:28:20.125Z,95309.70
2019-02-09T12:31:09.031Z,95317.89
2019-02-09T12:33:58.784Z,95324.81
2019-02-09T12:36:47.937Z,95327.48
2019-02-09T12:39:36.736Z,95339.37
2019-02-09T12:42:25.461Z,95339.27
2019-02-09T12:45:16.840Z,95334.67
2019-02-09T12:48:07.327Z,95351.11
2019-02-09T12:50:55.682Z,95342.77
2019-02-09T12:53:44.631Z,95334.67
2019-02-09T12:56:33.112Z,95334.38
2019-02-09T12:59:22.144Z,95331.97
2019-02-09T13:02:10.877Z,95323.66
2019-02-09T13:04:59.547Z,95329.88
2019-02-09T13:07:48.615Z,95337.33
2019-02-09T13:10:36.895Z,95342.02
2019-02-09T13:13:25.279Z,95342.48
2019-02-09T13:16:13.976Z,95349.28
2019-02-09T13:19:02.929Z,95348.47
2019-02-09T13:21:51.688Z,95356.09
2019-02-09T13:24:40.132Z,95351.98
2019-02-09T13:27:29.003Z,95347.55
2019-02-09T13:30:20.719Z,95349.56
2019-02-09T13:33:08.893Z,95359.42
2019-02-09T13:35:57.539Z,95351.44
2019-02-09T13:38:46.133Z,95344.16
2019-02-09T13:41:35.463Z,95345.94
2019-02-09T13:44:24.506Z,95351.52
2019-02-09T13:47:12.850Z,95341.66
2019-02-09T13:50:01.785Z,95350.08
2019-02-09T13:52:50.406Z,95353.13
2019-02-09T13:55:38.697Z,95353.72
2019-02-09T13:58:27.422Z,95368.08
2019-02-09T14:01:16.505Z,95348.22
2019-02-09T14:04:05.565Z,95346.40
2019-02-09T14:06:54.052Z,95352.97
2019-02-09T14:09:43.090Z,95354.11
2019-02-09T14:12:32.019Z,95349.23
2019-02-09T14:15:22.755Z,95361.13
2019-02-09T14:18:11.751Z,95357.09
2019-02-09T14:21:00.709Z,95353.00
2019-02-09T14:23:50.063Z,95360.98
2019-02-09T14:26:38.746Z,95354.64
2019-02-09T14:29:29.571Z,95359.24
2019-02-09T14:32:22.611Z,95364.03
2019-02-09T14:35:13.899Z,95348.37
2019-02-09T14:38:02.611Z,95346.98
2019-02-09T14:40:51.708Z,95354.06
2019-02-09T14:43:41.944Z,95352.50
2019-02-09T14:46:30.844Z,95351.44
2019-02-09T14:49:20.212Z,95343.70
2019-02-09T14:52:13.836Z,95353.95
2019-02-09T14:55:03.407Z,95358.66
2019-02-09T14:57:52.666Z,95355.11
2019-02-09T15:00:44.146Z,95341.61
2019-02-09T15:03:33.332Z,95347.25
2019-02-09T15:06:22.221Z,95340.99
2019-02-09T15:09:11.710Z,95342.48
2019-02-09T15:12:00.787Z,95350.51
2019-02-09T15:14:49.649Z,95343.41
2019-02-09T15:17:40.281Z,95350.05
2019-02-09T15:20:32.124Z,95353.76
2019-02-09T15:23:21.000Z,95353.76
2019-02-09T15:26:09.637Z,95362.45
2019-02-09T15:28:58.755Z,95346.58
2019-02-09T15:31:47.434Z,95351.30
2019-02-09T15:34:36.325Z,95353.88
2019-02-09T15:37:25.236Z,95347.45
2019-02-09T15:40:16.668Z,95346.16
2019-02-09T15:43:05.358Z,95344.93
2019-02-09T15:45:53.967Z,95350.75
2019-02-09T15:48:42.917Z,95347.69
2019-02-09T15:51:32.077Z,95359.53
2019-02-09T15:54:21.034Z,95357.55
2019-02-09T15:57:09.477Z,95353.78
2019-02-09T15:59:59.811Z,95364.36
2019-02-09T16:02:51.101Z,95363.56
2019-02-09T16:05:40.076Z,95363.13
2019-02-09T16:08:29.439Z,95368.40
2019-02-09T16:11:20.361Z,95368.81
2019-02-09T16:14:14.035Z,95375.37
2019-02-09T16:17:03.328Z,95374.91
2019-02-09T16:19:52.531Z,95378.88
2019-02-09T16:22:41.918Z,95379.05
2019-02-09T16:25:31.288Z,95381.17
2019-02-09T16:28:23.329Z,95381.25
2019-02-09T16:31:11.756Z,95374.97
2019-02-09T16:34:00.183Z,95383.69
2019-02-09T16:36:53.936Z,95385.88
2019-02-09T16:39:42.407Z,95389.49
2019-02-09T16:42:31.236Z,95391.67
2019-02-09T16:45:31.311Z,95395.73
2019-02-09T16:48:19.841Z,95397.58
2019-02-09T16:51:09.200Z,95394.56
2019-02-09T16:53:58.606Z,95393.81
2019-02-09T16:56:47.966Z,95390.82
2019-02-09T16:59:36.967Z,95394.29
2019-02-09T17:02:26.045Z,95397.89
2019-02-09T17:05:15.253Z,95394.53
2019-02-09T17:08:04.896Z,95394.98
2019-02-09T17:10:56.478Z,95396.46
2019-02-09T17:13:46.137Z,95399.83
2019-02-09T17:16:35.444Z,95397.86
2019-02-09T17:19:27.891Z,95408.41
2019-02-09T17:22:20.110Z,95413.64
2019-02-09T17:25:10.324Z,95417.99
2019-02-09T17:27:59.676Z,95416.81
2019-02-09T17:30:48.536Z,95413.84
2019-02-09T17:33:38.195Z,95409.44
2019-02-09T17:36:27.437Z,95418.98
2019-02-09T17:39:16.788Z,95422.83
2019-02-09T17:42:06.466Z,95424.12
2019-02-09T17:44:55.656Z,95428.48
2019-02-09T17:47:44.464Z,95434.44
2019-02-09T17:50:33.784Z,95429.77
2019-02-09T17:53:22.193Z,95432.79
2019-02-09T17:56:11.127Z,95435.37
2019-02-09T17:59:00.440Z,95439.73
2019-02-09T18:01:49.711Z,95443.63
2019-02-09T18:04:38.259Z,95443.73
2019-02-09T18:07:27.232Z,95441.13
2019-02-09T18:10:16.685Z,95452.75
2019-02-09T18:13:04.937Z,95448.81
2019-02-09T18:15:53.693Z,95448.39
2019-02-09T18:18:42.337Z,95444.87
2019-02-09T18:21:31.265Z,95446.22
2019-02-09T18:24:20.097Z,95440.77
2019-02-09T18:27:08.302Z,95447.62
2019-02-09T18:29:57.391Z,95448.54
2019-02-09T18:32:46.046Z,95450.20
2019-02-09T18:35:34.882Z,95444.60
2019-02-09T18:38:23.099Z,95440.71
2019-02-09T18:41:11.537Z,95436.37
2019-02-09T18:44:00.360Z,95432.94
2019-02-09T18:46:49.683Z,95433.77
2019-02-09T18:49:38.588Z,95434.61
2019-02-09T18:52:27.567Z,95431.55
2019-02-09T18:55:23.965Z,95429.77
2019-02-09T18:58:12.944Z,95423.66
2019-02-09T19:01:01.595Z,95426.31
2019-02-09T19:03:50.773Z,95421.06
2019-02-09T19:06:39.758Z,95419.75
2019-02-09T19:09:28.483Z,95421.07
2019-02-09T19:12:17.325Z,95420.17
2019-02-09T19:15:07.535Z,95420.18
2019-02-09T19:17:56.135Z,95415.83
2019-02-09T19:20:48.079Z,95419.30
2019-02-09T19:23:36.931Z,95414.53
2019-02-09T19:26:26.738Z,95411.56
2019-02-09T19:29:15.090Z,95412.87
2019-02-09T19:32:04.300Z,95412.50
2019-02-09T19:34:53.310Z,95416.41
2019-02-09T19:37:42.546Z,95415.66
2019-02-09T19:40:31.089Z,95418.30
2019-02-09T19:43:20.085Z,95407.48
2019-02-09T19:46:09.740Z,95413.58
2019-02-09T19:48:58.778Z,95416.12
2019-02-09T19:51:47.605Z,95409.23
2019-02-09T19:54:37.025Z,95414.52
2019-02-09T19:57:25.866Z,95407.21
2019-02-09T20:00:36.236Z,95408.92
2019-02-09T20:03:24.948Z,95404.66
2019-02-09T20:06:13.893Z,95403.88
2019-02-09T20:09:04.461Z,95399.02
2019-02-09T20:11:53.154Z,95397.77
2019-02-09T20:14:42.078Z,95395.13
2019-02-09T20:17:30.879Z,95377.81
2019-02-09T20:20:20.445Z,95386.83
2019-02-09T20:23:09.659Z,95389.73
2019-02-09T20:25:58.953Z,95392.33
2019-02-09T20:28:48.224Z,95386.67
2019-02-09T20:31:37.262Z,95391.87
2019-02-09T20:34:25.828Z,95397.05
2019-02-09T20:37:14.487Z,95404.36
2019-02-09T20:40:05.599Z,95403.90
2019-02-09T20:43:01.499Z,95406.53
2019-02-09T20:45:44.430Z,95402.19
2019-02-09T20:48:34.496Z,95401.25
2019-02-09T20:51:23.987Z,95403.78
2019-02-09T20:54:13.181Z,95399.44
2019-02-09T20:57:02.534Z,95406.44
2019-02-09T20:59:51.637Z,95413.38
2019-02-09T21:02:39.892Z,95415.94
2019-02-09T21:05:36.005Z,95413.69
2019-02-09T21:08:20.236Z,95405.91
2019-02-09T21:11:09.518Z,95401.50
2019-02-09T21:13:57.802Z,95409.28
2019-02-09T21:16:51.816Z,95404.10
2019-02-09T21:19:37.772Z,95404.92
2019-02-09T21:22:26.871Z,95397.09
2019-02-09T21:25:24.717Z,95394.08
2019-02-09T21:28:13.273Z,95400.50
2019-02-09T21:31:02.194Z,95400.56
2019-02-09T21:33:51.089Z,95401.03
2019-02-09T21:36:40.047Z,95401.45
2019-02-09T21:39:33.747Z,95409.23
2019-02-09T21:42:19.280Z,95415.67
2019-02-09T21:45:09.057Z,95420.85
2019-02-09T21:47:58.286Z,95428.21
2019-02-09T21:50:47.319Z,95416.07
2019-02-09T21:53:35.573Z,95422.09
2019-02-09T21:56:25.802Z,95429.88
2019-02-09T21:59:14.774Z,95427.38
2019-02-09T22:02:03.640Z,95420.02
2019-02-09T22:04:52.003Z,95423.09
2019-02-09T22:07:40.648Z,95425.62
2019-02-09T22:10:33.848Z,95420.91
2019-02-09T22:13:20.370Z,95419.56
2019-02-09T22:16:09.314Z,95419.20
2019-02-09T22:18:58.198Z,95414.05
2019-02-09T22:21:47.430Z,95418.89
2019-02-09T22:24:36.548Z,95412.40
2019-02-09T22:27:24.786Z,95409.86
2019-02-09T22:30:16.200Z,95411.26
2019-02-09T22:33:04.788Z,95404.31
2019-02-09T22:35:59.803Z,95391.86
2019-02-09T22:38:44.551Z,95393.11
2019-02-09T22:41:33.697Z,95397.52
2019-02-09T22:44:23.068Z,95396.27
2019-02-09T22:47:11.644Z,95392.28
2019-02-09T22:50:00.422Z,95383.25
2019-02-09T22:52:49.216Z,95390.98
2019-02-09T22:55:37.389Z,95391.03
2019-02-09T22:58:26.228Z,95393.31
2019-02-09T23:01:40.928Z,95386.00
2019-02-09T23:04:47.533Z,95382.98
2019-02-09T23:07:36.533Z,95379.98
2019-02-09T23:10:25.125Z,95371.79
2019-02-09T23:13:13.908Z,95374.44
2019-02-09T23:16:02.951Z,95376.66
2019-02-09T23:18:51.373Z,95373.65
2019-02-09T23:21:40.508Z,95379.30
2019-02-09T23:24:29.320Z,95376.72
2019-02-09T23:27:18.093Z,95377.70
2019-02-09T23:30:10.567Z,95374.31
2019-02-09T23:32:59.494Z,95361.35
2019-02-09T23:35:47.988Z,95363.48
2019-02-09T23:38:36.518Z,95357.89
2019-02-09T23:41:25.438Z,95350.16
2019-02-09T23:44:14.237Z,95347.98
2019-02-09T23:47:02.527Z,95348.54
2019-02-09T23:49:51.241Z,95345.48
2019-02-09T23:52:39.388Z,95355.44
2019-02-09T23:55:28.195Z,95357.24
2019-02-09T23:58:16.914Z,95356.00
